createdAt,value
2019-03-23T00:01:49.652Z,31.67
2019-03-23T00:04:17.319Z,31.60
2019-03-23T00:06:44.968Z,30.63
2019-03-23T00:09:12.711Z,30.73
2019-03-23T00:11:40.358Z,35.87
2019-03-23T00:14:08.031Z,29.00
2019-03-23T00:16:35.815Z,29.40
2019-03-23T00:19:04.029Z,32.10
2019-03-23T00:21:31.720Z,27.03
2019-03-23T00:23:59.415Z,27.93
2019-03-23T00:26:27.076Z,28.20
2019-03-23T00:28:54.775Z,29.77
2019-03-23T00:31:22.435Z,26.67
2019-03-23T00:33:50.097Z,28.93
2019-03-23T00:36:17.771Z,30.30
2019-03-23T00:38:45.435Z,28.07
2019-03-23T00:41:13.091Z,28.27
2019-03-23T00:43:40.750Z,28.30
2019-03-23T00:46:09.245Z,24.53
2019-03-23T00:48:38.316Z,27.37
2019-03-23T00:51:06.030Z,24.63
2019-03-23T00:53:33.687Z,25.30
2019-03-23T00:56:01.431Z,26.83
2019-03-23T00:58:29.087Z,25.83
2019-03-23T01:00:56.736Z,28.47
2019-03-23T01:03:24.398Z,26.97
2019-03-23T01:05:52.055Z,29.77
2019-03-23T01:08:19.722Z,30.77
2019-03-23T01:10:47.891Z,27.93
2019-03-23T01:13:15.559Z,27.70
2019-03-23T01:15:43.219Z,28.53
2019-03-23T01:18:10.895Z,27.20
2019-03-23T01:20:49.093Z,27.37
2019-03-23T01:23:07.959Z,33.10
2019-03-23T01:25:35.615Z,30.10
2019-03-23T01:28:03.276Z,28.10
2019-03-23T01:30:30.936Z,28.40
2019-03-23T01:32:58.595Z,25.97
2019-03-23T01:35:26.321Z,28.20
2019-03-23T01:37:53.978Z,31.83
2019-03-23T01:40:21.646Z,29.43
2019-03-23T01:42:49.340Z,28.73
2019-03-23T01:45:17.057Z,33.73
2019-03-23T01:47:44.746Z,31.13
2019-03-23T01:50:12.410Z,32.43
2019-03-23T01:52:40.066Z,27.93
2019-03-23T01:55:07.741Z,28.90
2019-03-23T01:57:35.398Z,30.70
2019-03-23T02:00:03.119Z,31.23
2019-03-23T02:02:30.770Z,32.77
2019-03-23T02:04:58.435Z,31.13
2019-03-23T02:07:26.088Z,33.17
2019-03-23T02:09:53.747Z,31.70
2019-03-23T02:12:21.403Z,27.30
2019-03-23T02:14:49.145Z,29.20
2019-03-23T02:17:16.962Z,30.77
2019-03-23T02:19:44.750Z,32.50
2019-03-23T02:22:12.396Z,27.53
2019-03-23T02:24:40.058Z,31.10
2019-03-23T02:27:07.707Z,33.77
2019-03-23T02:29:35.397Z,31.30
2019-03-23T02:32:03.236Z,31.47
2019-03-23T02:34:31.083Z,32.87
2019-03-23T02:36:58.852Z,31.93
2019-03-23T02:39:26.510Z,30.57
2019-03-23T02:41:54.164Z,26.50
2019-03-23T02:44:21.819Z,28.57
2019-03-23T02:46:49.475Z,25.00
2019-03-23T02:49:17.180Z,30.17
2019-03-23T02:51:44.924Z,30.00
2019-03-23T02:54:12.779Z,30.97
2019-03-23T02:56:40.435Z,25.17
2019-03-23T02:59:08.092Z,30.17
2019-03-23T03:01:35.805Z,28.37
2019-03-23T03:04:03.524Z,29.93
2019-03-23T03:06:31.248Z,28.30
2019-03-23T03:08:58.968Z,35.70
2019-03-23T03:11:26.960Z,32.20
2019-03-23T03:13:54.652Z,35.90
2019-03-23T03:16:22.332Z,32.00
2019-03-23T03:18:49.983Z,32.20
2019-03-23T03:21:17.653Z,33.63
2019-03-23T03:23:45.522Z,31.83
2019-03-23T03:26:13.249Z,33.73
2019-03-23T03:28:41.205Z,31.43
2019-03-23T03:31:08.923Z,32.53
2019-03-23T03:33:36.586Z,35.93
2019-03-23T03:36:04.334Z,30.47
2019-03-23T03:38:32.002Z,32.20
2019-03-23T03:41:00.040Z,31.27
2019-03-23T03:43:28.080Z,31.63
2019-03-23T03:45:55.758Z,32.23
2019-03-23T03:48:23.421Z,37.57
2019-03-23T03:50:51.083Z,30.80
2019-03-23T03:53:18.740Z,35.67
2019-03-23T03:55:46.505Z,33.57
2019-03-23T03:58:14.163Z,28.77
2019-03-23T04:00:41.828Z,33.77
2019-03-23T04:03:09.520Z,37.63
2019-03-23T04:05:37.546Z,32.43
2019-03-23T04:08:11.528Z,33.47
2019-03-23T04:10:34.619Z,32.93
2019-03-23T04:13:02.355Z,32.03
2019-03-23T04:15:30.208Z,32.70
2019-03-23T04:17:57.957Z,30.10
2019-03-23T04:20:25.670Z,30.20
2019-03-23T04:22:53.322Z,28.93
2019-03-23T04:25:21.034Z,31.53
2019-03-23T04:27:48.757Z,32.20
2019-03-23T04:30:16.562Z,33.57
2019-03-23T04:32:44.260Z,42.13
2019-03-23T04:35:11.911Z,31.50
2019-03-23T04:37:39.581Z,34.30
2019-03-23T04:40:07.237Z,33.60
2019-03-23T04:42:35.224Z,28.83
2019-03-23T04:45:02.881Z,33.60
2019-03-23T04:47:30.581Z,33.83
2019-03-23T04:49:58.398Z,34.27
2019-03-23T04:52:26.057Z,32.47
2019-03-23T04:54:53.732Z,34.70
2019-03-23T04:57:21.391Z,33.30
2019-03-23T04:59:49.138Z,34.47
2019-03-23T05:02:16.798Z,36.20
2019-03-23T05:04:44.469Z,33.33
2019-03-23T05:07:12.127Z,33.67
2019-03-23T05:09:39.788Z,33.47
2019-03-23T05:12:07.447Z,30.13
2019-03-23T05:14:35.107Z,33.90
2019-03-23T05:17:02.856Z,30.23
2019-03-23T05:19:30.511Z,34.00
2019-03-23T05:21:58.236Z,33.37
2019-03-23T05:24:25.943Z,32.73
2019-03-23T05:26:53.643Z,30.93
2019-03-23T05:29:21.375Z,34.13
2019-03-23T05:31:49.054Z,30.70
2019-03-23T05:34:16.708Z,33.40
2019-03-23T05:36:44.574Z,30.17
2019-03-23T05:39:12.244Z,34.60
2019-03-23T05:41:39.912Z,31.83
2019-03-23T05:44:07.571Z,30.37
2019-03-23T05:46:35.234Z,38.43
2019-03-23T05:49:02.907Z,35.20
2019-03-23T05:51:30.590Z,33.87
2019-03-23T05:53:58.454Z,32.03
2019-03-23T05:56:26.111Z,35.80
2019-03-23T05:58:53.771Z,32.87
2019-03-23T06:01:21.516Z,34.33
2019-03-23T06:03:49.235Z,31.47
2019-03-23T06:06:16.955Z,33.53
2019-03-23T06:08:54.219Z,35.90
2019-03-23T06:11:13.989Z,30.97
2019-03-23T06:13:41.727Z,26.70
2019-03-23T06:16:09.423Z,29.43
2019-03-23T06:18:37.109Z,32.03
2019-03-23T06:21:08.888Z,32.90
2019-03-23T06:23:36.576Z,32.27
2019-03-23T06:26:06.458Z,30.40
2019-03-23T06:28:33.810Z,39.73
2019-03-23T06:31:01.458Z,34.03
2019-03-23T06:33:29.203Z,30.00
2019-03-23T06:35:56.888Z,28.57
2019-03-23T06:38:24.995Z,32.07
2019-03-23T06:40:52.654Z,29.77
2019-03-23T06:43:20.307Z,30.13
2019-03-23T06:45:47.968Z,33.53
2019-03-23T06:48:15.683Z,32.43
2019-03-23T06:50:43.469Z,33.07
2019-03-23T06:53:11.138Z,30.13
2019-03-23T06:55:38.791Z,30.13
2019-03-23T06:58:06.467Z,28.87
2019-03-23T07:00:34.129Z,34.23
2019-03-23T07:03:01.793Z,34.30
2019-03-23T07:05:29.443Z,32.40
2019-03-23T07:07:57.106Z,32.80
2019-03-23T07:10:24.751Z,32.23
2019-03-23T07:12:52.410Z,34.63
2019-03-23T07:15:20.652Z,36.77
2019-03-23T07:17:48.550Z,32.67
2019-03-23T07:20:16.315Z,35.90
2019-03-23T07:22:44.048Z,37.57
2019-03-23T07:25:11.715Z,35.93
2019-03-23T07:27:39.380Z,38.00
2019-03-23T07:30:07.043Z,32.37
2019-03-23T07:32:34.712Z,32.27
2019-03-23T07:35:02.381Z,32.60
2019-03-23T07:37:30.087Z,36.83
2019-03-23T07:39:57.740Z,38.03
2019-03-23T07:42:25.395Z,33.00
2019-03-23T07:44:53.062Z,35.23
2019-03-23T07:47:20.719Z,33.77
2019-03-23T07:49:48.387Z,36.70
2019-03-23T07:52:16.075Z,32.00
2019-03-23T07:54:43.832Z,34.23
2019-03-23T07:57:11.596Z,32.10
2019-03-23T07:59:39.257Z,29.57
2019-03-23T08:02:06.988Z,27.63
2019-03-23T08:04:34.659Z,28.77
2019-03-23T08:07:02.315Z,30.27
2019-03-23T08:09:37.550Z,31.90
2019-03-23T08:11:59.344Z,32.50
2019-03-23T08:14:27.018Z,29.77
2019-03-23T08:16:54.823Z,30.20
2019-03-23T08:19:22.614Z,28.90
2019-03-23T08:21:50.463Z,33.70
2019-03-23T08:24:18.131Z,28.63
2019-03-23T08:26:45.800Z,29.93
2019-03-23T08:29:13.474Z,28.83
2019-03-23T08:31:41.215Z,27.83
2019-03-23T08:34:08.890Z,27.43
2019-03-23T08:36:36.544Z,25.43
2019-03-23T08:39:04.687Z,29.13
2019-03-23T08:41:32.343Z,28.53
2019-03-23T08:44:00.013Z,29.43
2019-03-23T08:46:27.728Z,25.67
2019-03-23T08:48:55.443Z,28.77
2019-03-23T08:51:23.159Z,24.43
2019-03-23T08:53:51.558Z,28.80
2019-03-23T08:56:19.270Z,23.60
2019-03-23T08:58:47.005Z,28.70
2019-03-23T09:01:14.686Z,20.93
2019-03-23T09:03:52.052Z,22.70
2019-03-23T09:06:12.271Z,19.73
2019-03-23T09:08:39.933Z,24.40
2019-03-23T09:11:07.721Z,23.83
2019-03-23T09:13:40.618Z,20.52
2019-03-23T09:16:04.824Z,19.23
2019-03-23T09:18:32.484Z,17.83
2019-03-23T09:21:00.159Z,20.60
2019-03-23T09:23:28.010Z,20.60
2019-03-23T09:25:55.800Z,19.93
2019-03-23T09:28:23.546Z,17.25
2019-03-23T09:30:51.294Z,17.40
2019-03-23T09:33:18.951Z,19.37
2019-03-23T09:35:46.610Z,19.42
2019-03-23T09:38:14.271Z,15.60
2019-03-23T09:40:42.045Z,17.43
2019-03-23T09:43:10.272Z,15.43
2019-03-23T09:45:37.926Z,14.50
2019-03-23T09:48:05.587Z,14.85
2019-03-23T09:50:33.242Z,15.47
2019-03-23T09:53:00.940Z,18.10
2019-03-23T09:55:28.859Z,14.07
2019-03-23T09:57:56.651Z,10.93
2019-03-23T10:00:24.333Z,13.30
2019-03-23T10:02:51.982Z,9.70
2019-03-23T10:05:19.635Z,9.18
2019-03-23T10:07:47.279Z,6.87
2019-03-23T10:10:21.761Z,10.43
2019-03-23T10:12:44.366Z,8.73
2019-03-23T10:15:12.034Z,7.40
2019-03-23T10:17:39.674Z,8.27
2019-03-23T10:20:07.351Z,8.03
2019-03-23T10:22:35.002Z,10.63
2019-03-23T10:25:02.667Z,11.05
2019-03-23T10:27:30.359Z,8.63
2019-03-23T10:29:58.095Z,8.13
2019-03-23T10:32:25.742Z,8.70
2019-03-23T10:34:53.388Z,7.20
2019-03-23T10:37:21.085Z,8.10
2019-03-23T10:39:48.722Z,8.70
2019-03-23T10:42:16.948Z,7.70
2019-03-23T10:44:44.670Z,7.50
2019-03-23T10:47:12.316Z,6.67
2019-03-23T10:49:39.965Z,8.10
2019-03-23T10:52:07.610Z,9.70
2019-03-23T10:54:35.287Z,8.53
2019-03-23T10:57:03.014Z,8.90
2019-03-23T10:59:30.667Z,7.47
2019-03-23T11:01:58.480Z,8.10
2019-03-23T11:04:26.128Z,9.35
2019-03-23T11:06:53.794Z,7.37
2019-03-23T11:09:21.442Z,7.15
2019-03-23T11:11:49.129Z,10.10
2019-03-23T11:14:16.844Z,9.68
2019-03-23T11:16:44.748Z,9.08
2019-03-23T11:19:13.508Z,9.30
2019-03-23T11:21:41.470Z,10.93
2019-03-23T11:24:09.117Z,8.83
2019-03-23T11:26:36.785Z,8.55
2019-03-23T11:29:04.455Z,10.23
2019-03-23T11:31:32.127Z,10.83
2019-03-23T11:33:59.787Z,11.17
2019-03-23T11:36:27.492Z,10.73
2019-03-23T11:38:55.162Z,10.80
2019-03-23T11:41:22.848Z,11.37
2019-03-23T11:43:50.568Z,9.43
2019-03-23T11:46:18.240Z,10.63
2019-03-23T11:48:45.897Z,9.43
2019-03-23T11:51:13.550Z,12.55
2019-03-23T11:53:41.211Z,11.73
2019-03-23T11:56:08.878Z,10.03
2019-03-23T11:58:36.647Z,10.82
2019-03-23T12:01:04.296Z,12.00
2019-03-23T12:03:31.951Z,11.17
2019-03-23T12:05:59.600Z,10.13
2019-03-23T12:08:27.267Z,10.87
2019-03-23T12:11:02.552Z,10.08
2019-03-23T12:13:24.275Z,10.78
2019-03-23T12:15:51.936Z,10.80
2019-03-23T12:18:19.602Z,10.60
2019-03-23T12:20:47.256Z,9.93
2019-03-23T12:23:14.913Z,9.33
2019-03-23T12:25:42.567Z,12.40
2019-03-23T12:28:10.219Z,9.85
2019-03-23T12:30:37.897Z,14.17
2019-03-23T12:33:05.555Z,12.90
2019-03-23T12:35:33.206Z,12.30
2019-03-23T12:38:00.863Z,14.47
2019-03-23T12:40:28.534Z,14.80
2019-03-23T12:42:56.236Z,15.03
2019-03-23T12:45:23.936Z,15.10
2019-03-23T12:47:51.767Z,11.65
2019-03-23T12:50:19.433Z,12.80
2019-03-23T12:52:47.075Z,12.37
2019-03-23T12:55:14.737Z,12.17
2019-03-23T12:57:42.395Z,10.20
2019-03-23T13:00:10.119Z,11.67
2019-03-23T13:02:37.800Z,10.47
2019-03-23T13:05:05.439Z,13.20
2019-03-23T13:07:33.086Z,12.15
2019-03-23T13:10:00.765Z,10.67
2019-03-23T13:12:28.503Z,13.08
2019-03-23T13:14:56.150Z,12.27
2019-03-23T13:17:23.996Z,12.25
2019-03-23T13:19:51.653Z,11.05
2019-03-23T13:22:19.340Z,11.87
2019-03-23T13:24:47.012Z,13.00
2019-03-23T13:27:14.675Z,14.93
2019-03-23T13:29:42.344Z,11.70
2019-03-23T13:32:09.990Z,11.38
2019-03-23T13:34:37.655Z,10.17
2019-03-23T13:37:05.339Z,12.47
2019-03-23T13:39:32.995Z,11.87
2019-03-23T13:42:00.701Z,13.33
2019-03-23T13:44:28.368Z,10.20
2019-03-23T13:46:56.023Z,13.68
2019-03-23T13:49:23.670Z,11.63
2019-03-23T13:51:51.361Z,12.53
2019-03-23T13:54:19.010Z,14.60
2019-03-23T13:56:46.663Z,12.30
2019-03-23T13:59:14.343Z,11.65
2019-03-23T14:01:42.015Z,10.80
2019-03-23T14:04:09.659Z,11.83
2019-03-23T14:06:37.315Z,14.47
2019-03-23T14:09:05.325Z,15.30
2019-03-23T14:11:32.996Z,10.10
2019-03-23T14:14:00.645Z,12.37
2019-03-23T14:16:28.315Z,14.83
2019-03-23T14:18:56.357Z,15.03
2019-03-23T14:21:24.122Z,14.43
2019-03-23T14:23:51.773Z,13.93
2019-03-23T14:26:19.439Z,14.37
2019-03-23T14:28:47.124Z,13.67
2019-03-23T14:31:14.822Z,17.83
2019-03-23T14:33:42.534Z,13.60
2019-03-23T14:36:10.190Z,13.10
2019-03-23T14:38:37.837Z,13.73
2019-03-23T14:41:05.495Z,16.02
2019-03-23T14:43:33.143Z,14.43
2019-03-23T14:46:00.806Z,14.53
2019-03-23T14:48:28.454Z,14.83
2019-03-23T14:50:56.226Z,14.83
2019-03-23T14:53:23.882Z,13.67
2019-03-23T14:55:51.544Z,14.10
2019-03-23T14:58:19.211Z,15.47
2019-03-23T15:00:47.094Z,14.07
2019-03-23T15:03:14.867Z,12.87
2019-03-23T15:05:42.607Z,15.03
2019-03-23T15:08:10.371Z,13.10
2019-03-23T15:10:38.058Z,13.62
2019-03-23T15:13:05.809Z,18.33
2019-03-23T15:15:33.586Z,22.40
2019-03-23T15:18:01.240Z,15.18
2019-03-23T15:20:28.898Z,16.90
2019-03-23T15:22:56.541Z,17.60
2019-03-23T15:25:24.194Z,16.80
2019-03-23T15:27:51.847Z,16.57
2019-03-23T15:30:19.554Z,15.83
2019-03-23T15:32:47.268Z,14.97
2019-03-23T15:35:14.923Z,20.37
2019-03-23T15:37:42.583Z,15.17
2019-03-23T15:40:10.233Z,13.77
2019-03-23T15:42:37.885Z,15.53
2019-03-23T15:45:05.542Z,15.47
2019-03-23T15:47:33.259Z,15.93
2019-03-23T15:50:01.007Z,17.07
2019-03-23T15:52:28.663Z,16.07
2019-03-23T15:54:56.313Z,16.60
2019-03-23T15:57:23.993Z,14.07
2019-03-23T15:59:51.634Z,15.17
2019-03-23T16:02:19.346Z,17.37
2019-03-23T16:04:47.025Z,17.25
2019-03-23T16:07:14.711Z,16.57
2019-03-23T16:09:42.414Z,20.97
2019-03-23T16:12:10.072Z,20.77
2019-03-23T16:14:37.730Z,20.33
2019-03-23T16:17:05.387Z,19.70
2019-03-23T16:19:33.067Z,17.10
2019-03-23T16:22:00.779Z,16.63
2019-03-23T16:24:28.467Z,18.10
2019-03-23T16:26:56.134Z,20.47
2019-03-23T16:29:23.807Z,18.07
2019-03-23T16:31:51.539Z,18.97
2019-03-23T16:34:19.260Z,22.20
2019-03-23T16:36:46.902Z,21.07
2019-03-23T16:39:14.566Z,22.67
2019-03-23T16:41:42.251Z,23.60
2019-03-23T16:44:09.929Z,25.00
2019-03-23T16:46:37.612Z,24.53
2019-03-23T16:49:05.278Z,27.87
2019-03-23T16:51:33.003Z,25.47
2019-03-23T16:54:00.671Z,26.93
2019-03-23T16:56:28.319Z,28.03
2019-03-23T16:58:56.036Z,26.67
2019-03-23T17:01:23.810Z,26.03
2019-03-23T17:03:51.488Z,29.07
2019-03-23T17:06:19.361Z,33.90
2019-03-23T17:08:47.087Z,39.20
2019-03-23T17:11:14.744Z,37.17
2019-03-23T17:13:42.404Z,44.03
2019-03-23T17:16:10.063Z,49.77
2019-03-23T17:18:37.734Z,46.17
2019-03-23T17:21:05.431Z,53.67
2019-03-23T17:23:33.098Z,51.17
2019-03-23T17:26:00.755Z,54.70
2019-03-23T17:28:28.425Z,54.10
2019-03-23T17:30:56.186Z,51.53
2019-03-23T17:33:23.859Z,55.07
2019-03-23T17:35:51.516Z,55.87
2019-03-23T17:38:19.233Z,54.20
2019-03-23T17:40:46.870Z,56.70
2019-03-23T17:43:14.826Z,55.20
2019-03-23T17:45:42.497Z,63.67
2019-03-23T17:48:10.239Z,53.60
2019-03-23T17:50:37.917Z,55.40
2019-03-23T17:53:05.568Z,54.20
2019-03-23T17:55:33.236Z,56.40
2019-03-23T17:58:00.969Z,53.07
2019-03-23T18:00:29.411Z,55.83
2019-03-23T18:02:57.224Z,50.17
2019-03-23T18:05:24.970Z,50.03
2019-03-23T18:07:52.639Z,50.87
2019-03-23T18:10:20.343Z,54.43
2019-03-23T18:12:48.124Z,52.67
2019-03-23T18:15:15.796Z,54.13
2019-03-23T18:17:43.452Z,52.70
2019-03-23T18:20:11.118Z,48.83
2019-03-23T18:22:38.782Z,44.10
2019-03-23T18:25:06.449Z,51.37
2019-03-23T18:27:39.482Z,51.07
2019-03-23T18:30:07.146Z,49.83
2019-03-23T18:32:34.803Z,45.10
2019-03-23T18:35:03.284Z,49.77
2019-03-23T18:37:31.168Z,47.03
2019-03-23T18:39:58.855Z,48.67
2019-03-23T18:42:26.515Z,50.57
2019-03-23T18:44:54.179Z,44.93
2019-03-23T18:47:21.842Z,45.13
2019-03-23T18:49:49.511Z,46.63
2019-03-23T18:52:17.323Z,46.57
2019-03-23T18:54:45.103Z,47.67
2019-03-23T18:57:12.799Z,45.70
2019-03-23T18:59:40.456Z,42.00
2019-03-23T19:02:08.112Z,47.70
2019-03-23T19:04:35.775Z,45.17
2019-03-23T19:07:03.568Z,44.00
2019-03-23T19:09:31.322Z,44.13
2019-03-23T19:11:58.999Z,44.83
2019-03-23T19:14:26.683Z,36.90
2019-03-23T19:16:54.360Z,40.80
2019-03-23T19:19:22.027Z,45.37
2019-03-23T19:21:49.683Z,42.03
2019-03-23T19:24:17.364Z,44.00
2019-03-23T19:26:45.103Z,44.40
2019-03-23T19:29:12.802Z,46.13
2019-03-23T19:31:40.755Z,40.27
2019-03-23T19:34:08.451Z,68.17
2019-03-23T19:36:36.107Z,122.50
2019-03-23T19:39:04.823Z,69.93
2019-03-23T19:41:32.501Z,37.43
2019-03-23T19:44:00.251Z,34.43
2019-03-23T19:46:27.916Z,37.33
2019-03-23T19:48:55.573Z,37.83
2019-03-23T19:51:23.235Z,36.83
2019-03-23T19:53:50.902Z,35.57
2019-03-23T19:56:18.588Z,35.63
2019-03-23T19:58:46.246Z,39.43
2019-03-23T20:01:13.914Z,36.87
2019-03-23T20:03:41.577Z,36.10
2019-03-23T20:06:09.241Z,34.40
2019-03-23T20:08:36.898Z,39.83
2019-03-23T20:11:04.612Z,43.23
2019-03-23T20:13:32.268Z,41.03
2019-03-23T20:15:59.963Z,43.47
2019-03-23T20:18:27.618Z,43.67
2019-03-23T20:20:55.279Z,43.57
2019-03-23T20:23:22.964Z,44.47
2019-03-23T20:25:50.692Z,42.07
2019-03-23T20:28:18.770Z,46.40
2019-03-23T20:30:46.650Z,40.33
2019-03-23T20:33:19.385Z,41.27
2019-03-23T20:35:43.752Z,45.27
2019-03-23T20:38:11.482Z,42.87
2019-03-23T20:40:39.175Z,43.27
2019-03-23T20:43:06.835Z,45.10
2019-03-23T20:45:34.512Z,44.57
2019-03-23T20:48:02.167Z,47.37
2019-03-23T20:50:29.837Z,47.93
2019-03-23T20:52:57.508Z,47.80
2019-03-23T20:55:25.246Z,46.00
2019-03-23T20:57:53.006Z,43.63
2019-03-23T21:00:20.751Z,39.70
2019-03-23T21:02:48.424Z,46.67
2019-03-23T21:05:16.089Z,47.20
2019-03-23T21:07:43.813Z,43.93
2019-03-23T21:10:11.519Z,45.27
2019-03-23T21:12:39.194Z,48.27
2019-03-23T21:15:06.864Z,40.30
2019-03-23T21:17:34.525Z,46.17
2019-03-23T21:20:02.263Z,45.30
2019-03-23T21:22:29.973Z,48.67
2019-03-23T21:24:57.764Z,49.23
2019-03-23T21:27:25.513Z,47.30
2019-03-23T21:29:53.210Z,47.77
2019-03-23T21:32:21.244Z,50.00
2019-03-23T21:34:48.903Z,48.63
2019-03-23T21:37:16.563Z,47.87
2019-03-23T21:39:44.286Z,45.17
2019-03-23T21:42:11.940Z,45.27
2019-03-23T21:44:39.609Z,47.07
2019-03-23T21:47:07.279Z,43.30
2019-03-23T21:49:34.938Z,46.10
2019-03-23T21:52:02.600Z,46.60
2019-03-23T21:54:30.264Z,42.87
2019-03-23T21:56:58.005Z,40.37
2019-03-23T21:59:25.877Z,45.67
2019-03-23T22:01:53.531Z,42.17
2019-03-23T22:04:21.191Z,40.53
2019-03-23T22:06:48.866Z,40.70
2019-03-23T22:09:16.531Z,41.23
2019-03-23T22:11:44.231Z,44.70
2019-03-23T22:14:11.915Z,39.43
2019-03-23T22:16:39.666Z,45.80
2019-03-23T22:19:07.327Z,42.37
2019-03-23T22:21:35.000Z,48.37
2019-03-23T22:24:02.668Z,45.60
2019-03-23T22:26:30.332Z,46.97
2019-03-23T22:28:58.024Z,44.50
2019-03-23T22:31:25.682Z,45.53
2019-03-23T22:33:53.340Z,41.43
2019-03-23T22:36:20.992Z,40.73
2019-03-23T22:38:48.663Z,46.10
2019-03-23T22:41:16.327Z,47.17
2019-03-23T22:43:44.006Z,44.73
2019-03-23T22:46:11.719Z,43.93
2019-03-23T22:48:39.401Z,45.87
2019-03-23T22:51:07.091Z,46.47
2019-03-23T22:53:34.755Z,43.67
2019-03-23T22:56:02.645Z,47.57
2019-03-23T22:58:30.355Z,50.30
2019-03-23T23:00:58.042Z,47.90
2019-03-23T23:03:25.918Z,49.07
2019-03-23T23:05:53.937Z,47.23
2019-03-23T23:08:21.707Z,48.53
2019-03-23T23:10:49.363Z,50.77
2019-03-23T23:13:17.026Z,50.63
2019-03-23T23:15:44.745Z,46.20
2019-03-23T23:18:12.416Z,46.87
2019-03-23T23:20:40.071Z,50.20
2019-03-23T23:23:07.815Z,48.13
2019-03-23T23:25:35.742Z,52.43
2019-03-23T23:28:03.442Z,50.90
2019-03-23T23:30:31.103Z,47.60
2019-03-23T23:32:58.770Z,54.73
2019-03-23T23:35:26.482Z,42.93
2019-03-23T23:37:54.144Z,44.00
2019-03-23T23:40:21.803Z,46.13
2019-03-23T23:42:49.710Z,46.63
2019-03-23T23:45:17.421Z,45.03
2019-03-23T23:47:45.158Z,43.23
2019-03-23T23:50:12.829Z,46.33
2019-03-23T23:52:40.480Z,44.27
2019-03-23T23:55:08.147Z,43.80
2019-03-23T23:57:35.807Z,44.03
